LFPT

Pontoise - Cormeilles-en-Vexin Airport

Airport
ICAO code
LFPT
IATA Code
POX
Summary
ICAO Region
EUR
ICAO Territory
Location

, Ile-de-France

Serving
Pontoise
Elevation
325 ft
Coordinates
49° 5' 48" N , 2° 2' 27" E
Metar
Observation
LFPT 301300Z AUTO 03015KT CAVOK 21/05 Q1023
Station
Pontoise - Cormeilles-en-Vexin
Date/Time
2023-05-30 13:00:00
Wind direction
30°
Wind speed
15 kts
Lowest cloud amount
clouds and visibility OK
Temperature
21°C
Dew point
5°C
Humidity
35%
QNH
1023 hPa
Weather condition
n/a

Runways

Designator Length Width Surface Rops
12/30 1650 50 ASP Yes/Yes
5/23 1689 50 ASP Yes/Yes

Airport map

Aerial View

SKYbrary Partners:

Safety knowledge contributed by: